sensor_id;sensor_type;location;lat;lon;timestamp;P1;durP1;ratioP1;P2;durP2;ratioP2
12222;SDS011;6174;49.058;8.524;2023-03-21T05:03:02;5.40;;;4.07;;
12222;SDS011;6174;49.058;8.524;2023-03-21T05:05:33;4.00;;;3.70;;
12222;SDS011;6174;49.058;8.524;2023-03-21T05:08:00;5.07;;;4.00;;
12222;SDS011;6174;49.058;8.524;2023-03-21T05:10:27;5.00;;;4.47;;
12222;SDS011;6174;49.058;8.524;2023-03-21T05:12:54;5.30;;;4.20;;
12222;SDS011;6174;49.058;8.524;2023-03-21T05:15:20;4.70;;;3.90;;
12222;SDS011;6174;49.058;8.524;2023-03-21T05:17:49;4.40;;;4.00;;
12222;SDS011;6174;49.058;8.524;2023-03-21T05:20:17;4.90;;;4.43;;
12222;SDS011;6174;49.058;8.524;2023-03-21T05:22:43;5.57;;;4.00;;
12222;SDS011;6174;49.058;8.524;2023-03-21T05:25:14;4.60;;;3.87;;
12222;SDS011;6174;49.058;8.524;2023-03-21T05:27:42;4.27;;;3.87;;
12222;SDS011;6174;49.058;8.524;2023-03-21T05:30:10;4.47;;;3.90;;
12222;SDS011;6174;49.058;8.524;2023-03-21T05:32:38;4.57;;;4.00;;
12222;SDS011;6174;49.058;8.524;2023-03-21T05:35:06;4.20;;;3.70;;
12222;SDS011;6174;49.058;8.524;2023-03-21T05:37:34;3.87;;;3.47;;
12222;SDS011;6174;49.058;8.524;2023-03-21T05:40:02;5.03;;;3.90;;
12222;SDS011;6174;49.058;8.524;2023-03-21T05:42:31;4.43;;;4.00;;
12222;SDS011;6174;49.058;8.524;2023-03-21T05:44:58;3.83;;;3.53;;
12222;SDS011;6174;49.058;8.524;2023-03-21T05:47:24;4.87;;;3.67;;
12222;SDS011;6174;49.058;8.524;2023-03-21T05:49:51;4.23;;;3.83;;
12222;SDS011;6174;49.058;8.524;2023-03-21T05:52:19;4.50;;;4.10;;
12222;SDS011;6174;49.058;8.524;2023-03-21T05:54:46;5.80;;;3.93;;
12222;SDS011;6174;49.058;8.524;2023-03-21T05:57:13;5.57;;;3.63;;
12222;SDS011;6174;49.058;8.524;2023-03-21T05:59:43;4.83;;;3.70;;
12222;SDS011;6174;49.058;8.524;2023-03-21T06:02:09;5.10;;;3.30;;
12222;SDS011;6174;49.058;8.524;2023-03-21T06:04:36;3.30;;;2.97;;
12222;SDS011;6174;49.058;8.524;2023-03-21T06:07:03;4.23;;;2.90;;
12222;SDS011;6174;49.058;8.524;2023-03-21T06:09:31;3.50;;;3.20;;
12222;SDS011;6174;49.058;8.524;2023-03-21T06:11:58;3.27;;;2.97;;
12222;SDS011;6174;49.058;8.524;2023-03-21T06:14:25;4.17;;;3.63;;
12222;SDS011;6174;49.058;8.524;2023-03-21T06:16:52;3.80;;;3.40;;
12222;SDS011;6174;49.058;8.524;2023-03-21T06:19:19;3.97;;;3.50;;
12222;SDS011;6174;49.058;8.524;2023-03-21T06:21:46;3.90;;;3.60;;
12222;SDS011;6174;49.058;8.524;2023-03-21T06:24:13;4.97;;;3.57;;
12222;SDS011;6174;49.058;8.524;2023-03-21T06:26:43;4.90;;;3.70;;
12222;SDS011;6174;49.058;8.524;2023-03-21T06:29:10;5.77;;;4.30;;
12222;SDS011;6174;49.058;8.524;2023-03-21T06:31:37;4.17;;;3.50;;
12222;SDS011;6174;49.058;8.524;2023-03-21T06:34:03;6.37;;;3.73;;
12222;SDS011;6174;49.058;8.524;2023-03-21T06:36:31;3.60;;;3.30;;
12222;SDS011;6174;49.058;8.524;2023-03-21T06:38:57;5.37;;;3.50;;
12222;SDS011;6174;49.058;8.524;2023-03-21T06:41:24;5.27;;;3.73;;
12222;SDS011;6174;49.058;8.524;2023-03-21T06:43:52;4.80;;;4.00;;
12222;SDS011;6174;49.058;8.524;2023-03-21T06:46:19;4.50;;;3.70;;
12222;SDS011;6174;49.058;8.524;2023-03-21T06:48:46;5.50;;;3.80;;
12222;SDS011;6174;49.058;8.524;2023-03-21T06:51:13;4.20;;;3.50;;
12222;SDS011;6174;49.058;8.524;2023-03-21T06:53:40;4.00;;;3.57;;
12222;SDS011;6174;49.058;8.524;2023-03-21T06:56:08;4.73;;;3.50;;
12222;SDS011;6174;49.058;8.524;2023-03-21T06:58:36;3.90;;;3.27;;
12222;SDS011;6174;49.058;8.524;2023-03-21T07:01:04;4.77;;;3.30;;
12222;SDS011;6174;49.058;8.524;2023-03-21T07:03:32;3.50;;;3.20;;
12222;SDS011;6174;49.058;8.524;2023-03-21T07:06:02;3.13;;;2.80;;
12222;SDS011;6174;49.058;8.524;2023-03-21T07:08:31;4.33;;;3.07;;
12222;SDS011;6174;49.058;8.524;2023-03-21T07:10:57;5.20;;;3.63;;
12222;SDS011;6174;49.058;8.524;2023-03-21T07:13:24;4.00;;;3.60;;
12222;SDS011;6174;49.058;8.524;2023-03-21T07:15:51;3.73;;;3.40;;
12222;SDS011;6174;49.058;8.524;2023-03-21T07:18:20;4.37;;;3.57;;
12222;SDS011;6174;49.058;8.524;2023-03-21T07:20:47;3.87;;;2.97;;
12222;SDS011;6174;49.058;8.524;2023-03-21T07:23:16;4.30;;;3.20;;
12222;SDS011;6174;49.058;8.524;2023-03-21T07:25:43;3.60;;;2.90;;
12222;SDS011;6174;49.058;8.524;2023-03-21T07:28:10;3.47;;;3.13;;
12222;SDS011;6174;49.058;8.524;2023-03-21T07:30:37;4.10;;;3.20;;
12222;SDS011;6174;49.058;8.524;2023-03-21T07:33:04;4.37;;;3.57;;
12222;SDS011;6174;49.058;8.524;2023-03-21T07:35:33;3.50;;;3.20;;
12222;SDS011;6174;49.058;8.524;2023-03-21T07:38:01;4.27;;;3.00;;
12222;SDS011;6174;49.058;8.524;2023-03-21T07:40:28;3.50;;;3.20;;
12222;SDS011;6174;49.058;8.524;2023-03-21T07:42:54;4.20;;;3.23;;
12222;SDS011;6174;49.058;8.524;2023-03-21T07:45:21;3.00;;;2.70;;
12222;SDS011;6174;49.058;8.524;2023-03-21T07:47:49;4.20;;;2.80;;
12222;SDS011;6174;49.058;8.524;2023-03-21T07:50:16;2.47;;;2.27;;
12222;SDS011;6174;49.058;8.524;2023-03-21T07:52:45;2.90;;;2.20;;
12222;SDS011;6174;49.058;8.524;2023-03-21T07:55:11;2.20;;;2.10;;
12222;SDS011;6174;49.058;8.524;2023-03-21T07:57:38;2.93;;;2.20;;
12222;SDS011;6174;49.058;8.524;2023-03-21T08:00:05;2.60;;;1.90;;
12222;SDS011;6174;49.058;8.524;2023-03-21T08:02:33;2.90;;;2.03;;
12222;SDS011;6174;49.058;8.524;2023-03-21T08:05:00;2.77;;;2.33;;
12222;SDS011;6174;49.058;8.524;2023-03-21T08:07:28;3.90;;;2.50;;
12222;SDS011;6174;49.058;8.524;2023-03-21T08:09:56;2.50;;;2.30;;
12222;SDS011;6174;49.058;8.524;2023-03-21T08:12:23;3.53;;;2.30;;
12222;SDS011;6174;49.058;8.524;2023-03-21T08:14:49;2.70;;;2.30;;
12222;SDS011;6174;49.058;8.524;2023-03-21T08:17:16;2.67;;;2.03;;
12222;SDS011;6174;49.058;8.524;2023-03-21T08:19:43;4.70;;;2.43;;
12222;SDS011;6174;49.058;8.524;2023-03-21T08:22:09;2.40;;;2.20;;
12222;SDS011;6174;49.058;8.524;2023-03-21T08:24:36;2.50;;;2.20;;
12222;SDS011;6174;49.058;8.524;2023-03-21T08:27:04;3.47;;;2.20;;
12222;SDS011;6174;49.058;8.524;2023-03-21T08:29:31;2.20;;;2.00;;
12222;SDS011;6174;49.058;8.524;2023-03-21T08:31:57;2.30;;;2.10;;
12222;SDS011;6174;49.058;8.524;2023-03-21T08:34:24;3.67;;;2.07;;
12222;SDS011;6174;49.058;8.524;2023-03-21T08:36:51;2.37;;;1.97;;
12222;SDS011;6174;49.058;8.524;2023-03-21T08:39:18;2.63;;;2.20;;
12222;SDS011;6174;49.058;8.524;2023-03-21T08:41:45;2.67;;;2.30;;
12222;SDS011;6174;49.058;8.524;2023-03-21T08:44:13;2.97;;;2.00;;
12222;SDS011;6174;49.058;8.524;2023-03-21T08:46:40;2.30;;;2.10;;
12222;SDS011;6174;49.058;8.524;2023-03-21T08:49:07;2.67;;;2.40;;
12222;SDS011;6174;49.058;8.524;2023-03-21T08:51:34;2.40;;;2.20;;
12222;SDS011;6174;49.058;8.524;2023-03-21T08:54:01;2.60;;;2.40;;
12222;SDS011;6174;49.058;8.524;2023-03-21T08:56:28;3.37;;;2.30;;
12222;SDS011;6174;49.058;8.524;2023-03-21T08:58:55;4.50;;;2.40;;
12222;SDS011;6174;49.058;8.524;2023-03-21T09:01:24;3.73;;;2.27;;
12222;SDS011;6174;49.058;8.524;2023-03-21T09:03:51;4.17;;;2.30;;
12222;SDS011;6174;49.058;8.524;2023-03-21T09:06:17;2.67;;;2.20;;
12222;SDS011;6174;49.058;8.524;2023-03-21T09:08:44;2.97;;;2.23;;
12222;SDS011;6174;49.058;8.524;2023-03-21T09:11:11;2.47;;;2.23;;
12222;SDS011;6174;49.058;8.524;2023-03-21T09:13:38;2.50;;;2.30;;
12222;SDS011;6174;49.058;8.524;2023-03-21T09:16:05;5.00;;;2.47;;
12222;SDS011;6174;49.058;8.524;2023-03-21T09:18:34;3.00;;;2.27;;
12222;SDS011;6174;49.058;8.524;2023-03-21T09:21:15;2.77;;;2.20;;
12222;SDS011;6174;49.058;8.524;2023-03-21T09:23:44;4.47;;;3.27;;
12222;SDS011;6174;49.058;8.524;2023-03-21T09:26:12;3.17;;;2.27;;
12222;SDS011;6174;49.058;8.524;2023-03-21T09:28:40;3.63;;;2.30;;
12222;SDS011;6174;49.058;8.524;2023-03-21T09:31:07;2.57;;;2.10;;
12222;SDS011;6174;49.058;8.524;2023-03-21T09:33:36;2.00;;;1.90;;
12222;SDS011;6174;49.058;8.524;2023-03-21T09:36:04;2.37;;;2.10;;
12222;SDS011;6174;49.058;8.524;2023-03-21T09:38:35;3.80;;;2.20;;
12222;SDS011;6174;49.058;8.524;2023-03-21T09:41:07;3.20;;;2.53;;
12222;SDS011;6174;49.058;8.524;2023-03-21T09:43:46;4.03;;;2.10;;
12222;SDS011;6174;49.058;8.524;2023-03-21T09:46:21;3.50;;;2.40;;
12222;SDS011;6174;49.058;8.524;2023-03-21T09:48:55;2.43;;;1.90;;
12222;SDS011;6174;49.058;8.524;2023-03-21T09:51:24;2.63;;;2.27;;
12222;SDS011;6174;49.058;8.524;2023-03-21T09:53:54;3.77;;;2.30;;
12222;SDS011;6174;49.058;8.524;2023-03-21T09:56:22;6.30;;;2.60;;
12222;SDS011;6174;49.058;8.524;2023-03-21T09:58:51;3.37;;;2.20;;
12222;SDS011;6174;49.058;8.524;2023-03-21T10:01:22;2.30;;;2.10;;
12222;SDS011;6174;49.058;8.524;2023-03-21T10:03:54;3.63;;;2.20;;
12222;SDS011;6174;49.058;8.524;2023-03-21T10:06:22;2.77;;;2.17;;
12222;SDS011;6174;49.058;8.524;2023-03-21T10:08:52;2.50;;;2.30;;
12222;SDS011;6174;49.058;8.524;2023-03-21T10:11:23;2.57;;;2.30;;
12222;SDS011;6174;49.058;8.524;2023-03-21T10:13:52;2.67;;;2.47;;
12222;SDS011;6174;49.058;8.524;2023-03-21T10:16:23;2.47;;;2.27;;
12222;SDS011;6174;49.058;8.524;2023-03-21T10:19:10;2.40;;;2.20;;
12222;SDS011;6174;49.058;8.524;2023-03-21T10:21:39;2.37;;;2.17;;
12222;SDS011;6174;49.058;8.524;2023-03-21T10:24:10;2.10;;;2.00;;
12222;SDS011;6174;49.058;8.524;2023-03-21T10:26:39;3.60;;;2.50;;
12222;SDS011;6174;49.058;8.524;2023-03-21T10:29:08;2.33;;;2.13;;
12222;SDS011;6174;49.058;8.524;2023-03-21T10:31:37;2.40;;;2.20;;
12222;SDS011;6174;49.058;8.524;2023-03-21T10:34:06;3.63;;;2.40;;
12222;SDS011;6174;49.058;8.524;2023-03-21T10:36:40;2.30;;;2.10;;
12222;SDS011;6174;49.058;8.524;2023-03-21T10:39:10;3.03;;;2.30;;
12222;SDS011;6174;49.058;8.524;2023-03-21T10:41:46;2.53;;;2.33;;
12222;SDS011;6174;49.058;8.524;2023-03-21T10:44:13;6.00;;;2.77;;
12222;SDS011;6174;49.058;8.524;2023-03-21T10:46:48;3.80;;;2.50;;
12222;SDS011;6174;49.058;8.524;2023-03-21T10:49:18;2.73;;;2.50;;
12222;SDS011;6174;49.058;8.524;2023-03-21T10:51:48;2.90;;;2.70;;
12222;SDS011;6174;49.058;8.524;2023-03-21T10:54:17;3.03;;;2.53;;
12222;SDS011;6174;49.058;8.524;2023-03-21T10:56:48;3.83;;;2.43;;
12222;SDS011;6174;49.058;8.524;2023-03-21T10:59:22;2.77;;;2.33;;
12222;SDS011;6174;49.058;8.524;2023-03-21T11:01:50;2.77;;;2.57;;
12222;SDS011;6174;49.058;8.524;2023-03-21T11:04:21;3.50;;;2.60;;
12222;SDS011;6174;49.058;8.524;2023-03-21T11:06:52;3.03;;;2.60;;
12222;SDS011;6174;49.058;8.524;2023-03-21T11:09:21;3.47;;;2.70;;
12222;SDS011;6174;49.058;8.524;2023-03-21T11:11:50;2.60;;;2.40;;
12222;SDS011;6174;49.058;8.524;2023-03-21T11:14:23;2.27;;;2.10;;
12222;SDS011;6174;49.058;8.524;2023-03-21T11:16:59;3.00;;;2.00;;
12222;SDS011;6174;49.058;8.524;2023-03-21T11:19:28;2.20;;;2.00;;
12222;SDS011;6174;49.058;8.524;2023-03-21T11:21:56;3.77;;;2.37;;
12222;SDS011;6174;49.058;8.524;2023-03-21T11:24:26;2.20;;;2.00;;
12222;SDS011;6174;49.058;8.524;2023-03-21T11:26:55;3.83;;;2.00;;
12222;SDS011;6174;49.058;8.524;2023-03-21T11:29:25;2.33;;;2.00;;
12222;SDS011;6174;49.058;8.524;2023-03-21T11:31:56;2.07;;;1.80;;
12222;SDS011;6174;49.058;8.524;2023-03-21T11:34:29;2.30;;;1.90;;
12222;SDS011;6174;49.058;8.524;2023-03-21T11:37:00;2.17;;;1.97;;
12222;SDS011;6174;49.058;8.524;2023-03-21T11:39:32;1.67;;;1.57;;
12222;SDS011;6174;49.058;8.524;2023-03-21T11:42:01;2.10;;;1.70;;
12222;SDS011;6174;49.058;8.524;2023-03-21T11:44:29;3.70;;;2.00;;
12222;SDS011;6174;49.058;8.524;2023-03-21T11:46:57;2.03;;;1.83;;
12222;SDS011;6174;49.058;8.524;2023-03-21T11:49:25;2.00;;;1.90;;
12222;SDS011;6174;49.058;8.524;2023-03-21T11:51:58;2.43;;;2.00;;
12222;SDS011;6174;49.058;8.524;2023-03-21T11:54:39;2.80;;;2.07;;
12222;SDS011;6174;49.058;8.524;2023-03-21T11:57:17;2.37;;;2.17;;
12222;SDS011;6174;49.058;8.524;2023-03-21T11:59:52;2.33;;;2.07;;
12222;SDS011;6174;49.058;8.524;2023-03-21T12:02:26;2.00;;;1.90;;
12222;SDS011;6174;49.058;8.524;2023-03-21T12:05:20;2.70;;;2.10;;
12222;SDS011;6174;49.058;8.524;2023-03-21T12:07:53;2.47;;;2.07;;
12222;SDS011;6174;49.058;8.524;2023-03-21T12:10:28;2.53;;;2.20;;
12222;SDS011;6174;49.058;8.524;2023-03-21T12:13:03;2.03;;;1.93;;
12222;SDS011;6174;49.058;8.524;2023-03-21T12:15:42;2.30;;;2.10;;
12222;SDS011;6174;49.058;8.524;2023-03-21T12:18:18;2.10;;;1.90;;
12222;SDS011;6174;49.058;8.524;2023-03-21T12:21:02;2.23;;;2.00;;
12222;SDS011;6174;49.058;8.524;2023-03-21T12:23:42;2.50;;;2.00;;
12222;SDS011;6174;49.058;8.524;2023-03-21T12:26:18;2.63;;;1.83;;
12222;SDS011;6174;49.058;8.524;2023-03-21T12:28:59;2.30;;;2.00;;
12222;SDS011;6174;49.058;8.524;2023-03-21T12:31:36;2.20;;;1.80;;
12222;SDS011;6174;49.058;8.524;2023-03-21T12:34:15;2.00;;;1.90;;
12222;SDS011;6174;49.058;8.524;2023-03-21T12:36:51;2.17;;;1.97;;
12222;SDS011;6174;49.058;8.524;2023-03-21T12:39:30;2.23;;;1.83;;
12222;SDS011;6174;49.058;8.524;2023-03-21T12:42:03;2.30;;;2.00;;
12222;SDS011;6174;49.058;8.524;2023-03-21T12:44:43;3.27;;;2.40;;
12222;SDS011;6174;49.058;8.524;2023-03-21T12:47:14;2.40;;;2.20;;
12222;SDS011;6174;49.058;8.524;2023-03-21T12:49:47;2.30;;;2.10;;
12222;SDS011;6174;49.058;8.524;2023-03-21T12:52:18;2.20;;;2.00;;
12222;SDS011;6174;49.058;8.524;2023-03-21T12:54:51;5.20;;;2.10;;
12222;SDS011;6174;49.058;8.524;2023-03-21T12:57:21;4.70;;;2.20;;
12222;SDS011;6174;49.058;8.524;2023-03-21T12:59:54;4.63;;;2.10;;
12222;SDS011;6174;49.058;8.524;2023-03-21T13:02:31;2.47;;;1.93;;
12222;SDS011;6174;49.058;8.524;2023-03-21T13:05:02;2.93;;;2.00;;
12222;SDS011;6174;49.058;8.524;2023-03-21T13:07:36;3.17;;;2.37;;
12222;SDS011;6174;49.058;8.524;2023-03-21T13:10:13;2.57;;;2.20;;
12222;SDS011;6174;49.058;8.524;2023-03-21T13:12:44;5.30;;;2.37;;
12222;SDS011;6174;49.058;8.524;2023-03-21T13:15:29;2.83;;;2.17;;
12222;SDS011;6174;49.058;8.524;2023-03-21T13:18:26;2.50;;;2.30;;
12222;SDS011;6174;49.058;8.524;2023-03-21T13:20:59;4.03;;;2.40;;
12222;SDS011;6174;49.058;8.524;2023-03-21T13:23:32;4.20;;;2.40;;
12222;SDS011;6174;49.058;8.524;2023-03-21T13:26:04;2.10;;;1.90;;
12222;SDS011;6174;49.058;8.524;2023-03-21T13:28:35;3.47;;;2.17;;
12222;SDS011;6174;49.058;8.524;2023-03-21T13:31:15;3.83;;;2.47;;
12222;SDS011;6174;49.058;8.524;2023-03-21T13:33:45;2.00;;;1.83;;
12222;SDS011;6174;49.058;8.524;2023-03-21T13:36:15;2.10;;;1.90;;
12222;SDS011;6174;49.058;8.524;2023-03-21T13:38:48;2.97;;;1.80;;
12222;SDS011;6174;49.058;8.524;2023-03-21T13:41:19;2.63;;;1.70;;
12222;SDS011;6174;49.058;8.524;2023-03-21T13:43:53;2.33;;;1.60;;
12222;SDS011;6174;49.058;8.524;2023-03-21T13:46:34;1.90;;;1.80;;
12222;SDS011;6174;49.058;8.524;2023-03-21T13:49:12;3.80;;;1.57;;
12222;SDS011;6174;49.058;8.524;2023-03-21T13:51:42;1.80;;;1.57;;
12222;SDS011;6174;49.058;8.524;2023-03-21T13:54:17;4.10;;;1.80;;
12222;SDS011;6174;49.058;8.524;2023-03-21T13:56:56;3.00;;;1.67;;
12222;SDS011;6174;49.058;8.524;2023-03-21T14:02:19;3.10;;;1.60;;
12222;SDS011;6174;49.058;8.524;2023-03-21T14:04:52;2.10;;;1.70;;
12222;SDS011;6174;49.058;8.524;2023-03-21T14:07:24;2.57;;;1.60;;
12222;SDS011;6174;49.058;8.524;2023-03-21T14:09:53;2.80;;;1.80;;
12222;SDS011;6174;49.058;8.524;2023-03-21T14:12:26;2.07;;;1.60;;
12222;SDS011;6174;49.058;8.524;2023-03-21T14:14:57;1.93;;;1.83;;
12222;SDS011;6174;49.058;8.524;2023-03-21T14:17:26;1.73;;;1.60;;
12222;SDS011;6174;49.058;8.524;2023-03-21T14:19:55;1.93;;;1.50;;
12222;SDS011;6174;49.058;8.524;2023-03-21T14:22:24;1.83;;;1.50;;
12222;SDS011;6174;49.058;8.524;2023-03-21T14:24:55;2.17;;;1.43;;
12222;SDS011;6174;49.058;8.524;2023-03-21T14:27:27;1.60;;;1.50;;
12222;SDS011;6174;49.058;8.524;2023-03-21T14:29:56;1.87;;;1.77;;
12222;SDS011;6174;49.058;8.524;2023-03-21T14:32:24;2.40;;;1.60;;
12222;SDS011;6174;49.058;8.524;2023-03-21T14:34:53;1.73;;;1.63;;
12222;SDS011;6174;49.058;8.524;2023-03-21T14:37:28;1.90;;;1.70;;
12222;SDS011;6174;49.058;8.524;2023-03-21T14:39:57;2.83;;;1.73;;
12222;SDS011;6174;49.058;8.524;2023-03-21T14:42:26;2.13;;;1.80;;
12222;SDS011;6174;49.058;8.524;2023-03-21T14:44:58;2.27;;;1.90;;
12222;SDS011;6174;49.058;8.524;2023-03-21T14:47:28;1.87;;;1.77;;
12222;SDS011;6174;49.058;8.524;2023-03-21T14:49:56;2.03;;;1.60;;
12222;SDS011;6174;49.058;8.524;2023-03-21T14:52:26;1.80;;;1.70;;
12222;SDS011;6174;49.058;8.524;2023-03-21T14:54:56;1.67;;;1.57;;
12222;SDS011;6174;49.058;8.524;2023-03-21T14:57:27;1.93;;;1.60;;
12222;SDS011;6174;49.058;8.524;2023-03-21T14:59:57;1.50;;;1.40;;
12222;SDS011;6174;49.058;8.524;2023-03-21T15:02:27;1.60;;;1.43;;
12222;SDS011;6174;49.058;8.524;2023-03-21T15:05:04;1.27;;;1.17;;
12222;SDS011;6174;49.058;8.524;2023-03-21T15:07:34;2.20;;;1.40;;
12222;SDS011;6174;49.058;8.524;2023-03-21T15:10:02;1.60;;;1.43;;
12222;SDS011;6174;49.058;8.524;2023-03-21T15:12:32;1.67;;;1.50;;
12222;SDS011;6174;49.058;8.524;2023-03-21T15:14:59;2.53;;;1.40;;
12222;SDS011;6174;49.058;8.524;2023-03-21T15:17:27;1.83;;;1.40;;
12222;SDS011;6174;49.058;8.524;2023-03-21T15:19:55;1.40;;;1.30;;
12222;SDS011;6174;49.058;8.524;2023-03-21T15:22:24;1.20;;;1.10;;
12222;SDS011;6174;49.058;8.524;2023-03-21T15:24:56;1.57;;;0.97;;
12222;SDS011;6174;49.058;8.524;2023-03-21T15:27:26;2.07;;;1.10;;
12222;SDS011;6174;49.058;8.524;2023-03-21T15:29:57;0.90;;;0.90;;
12222;SDS011;6174;49.058;8.524;2023-03-21T15:32:25;1.20;;;1.10;;
12222;SDS011;6174;49.058;8.524;2023-03-21T15:34:53;1.10;;;1.10;;
12222;SDS011;6174;49.058;8.524;2023-03-21T15:37:31;1.30;;;1.20;;
12222;SDS011;6174;49.058;8.524;2023-03-21T15:40:05;1.10;;;1.10;;
12222;SDS011;6174;49.058;8.524;2023-03-21T15:42:36;2.60;;;1.17;;
12222;SDS011;6174;49.058;8.524;2023-03-21T15:45:09;1.20;;;1.10;;
12222;SDS011;6174;49.058;8.524;2023-03-21T15:47:50;1.53;;;1.20;;
12222;SDS011;6174;49.058;8.524;2023-03-21T15:50:26;0.93;;;0.90;;
12222;SDS011;6174;49.058;8.524;2023-03-21T15:52:59;1.50;;;1.00;;
12222;SDS011;6174;49.058;8.524;2023-03-21T15:55:28;1.27;;;1.00;;
12222;SDS011;6174;49.058;8.524;2023-03-21T15:57:59;1.70;;;1.30;;
12222;SDS011;6174;49.058;8.524;2023-03-21T16:00:33;2.17;;;1.30;;
12222;SDS011;6174;49.058;8.524;2023-03-21T16:03:04;1.30;;;1.20;;
12222;SDS011;6174;49.058;8.524;2023-03-21T16:05:34;1.40;;;1.30;;
12222;SDS011;6174;49.058;8.524;2023-03-21T16:08:05;1.70;;;1.60;;
12222;SDS011;6174;49.058;8.524;2023-03-21T16:10:44;1.97;;;1.30;;
12222;SDS011;6174;49.058;8.524;2023-03-21T16:13:13;2.10;;;1.40;;
12222;SDS011;6174;49.058;8.524;2023-03-21T16:15:42;1.30;;;1.20;;
12222;SDS011;6174;49.058;8.524;2023-03-21T16:18:11;1.53;;;1.30;;
12222;SDS011;6174;49.058;8.524;2023-03-21T16:20:41;1.57;;;1.47;;
12222;SDS011;6174;49.058;8.524;2023-03-21T16:23:09;2.33;;;1.40;;
12222;SDS011;6174;49.058;8.524;2023-03-21T16:25:39;1.70;;;1.50;;
12222;SDS011;6174;49.058;8.524;2023-03-21T16:28:09;1.47;;;1.37;;
12222;SDS011;6174;49.058;8.524;2023-03-21T16:30:39;1.80;;;1.70;;
12222;SDS011;6174;49.058;8.524;2023-03-21T16:33:08;1.97;;;1.50;;
12222;SDS011;6174;49.058;8.524;2023-03-21T16:35:36;1.93;;;1.50;;
12222;SDS011;6174;49.058;8.524;2023-03-21T16:38:02;1.50;;;1.40;;
12222;SDS011;6174;49.058;8.524;2023-03-21T16:40:30;2.00;;;1.40;;
12222;SDS011;6174;49.058;8.524;2023-03-21T16:42:59;1.60;;;1.50;;
12222;SDS011;6174;49.058;8.524;2023-03-21T16:45:26;1.60;;;1.50;;
12222;SDS011;6174;49.058;8.524;2023-03-21T16:47:54;1.57;;;1.40;;
12222;SDS011;6174;49.058;8.524;2023-03-21T16:50:25;1.90;;;1.50;;
12222;SDS011;6174;49.058;8.524;2023-03-21T16:52:54;1.73;;;1.40;;
12222;SDS011;6174;49.058;8.524;2023-03-21T16:55:21;2.43;;;1.47;;
12222;SDS011;6174;49.058;8.524;2023-03-21T16:57:49;1.90;;;1.80;;
12222;SDS011;6174;49.058;8.524;2023-03-21T17:00:18;1.97;;;1.77;;
12222;SDS011;6174;49.058;8.524;2023-03-21T17:02:48;2.53;;;2.10;;
12222;SDS011;6174;49.058;8.524;2023-03-21T17:05:17;2.40;;;2.20;;
12222;SDS011;6174;49.058;8.524;2023-03-21T17:07:46;2.03;;;1.70;;
12222;SDS011;6174;49.058;8.524;2023-03-21T17:10:14;1.97;;;1.67;;
12222;SDS011;6174;49.058;8.524;2023-03-21T17:12:42;1.50;;;1.40;;
12222;SDS011;6174;49.058;8.524;2023-03-21T17:15:10;2.03;;;1.27;;
12222;SDS011;6174;49.058;8.524;2023-03-21T17:17:37;1.60;;;1.50;;
12222;SDS011;6174;49.058;8.524;2023-03-21T17:20:15;3.90;;;1.60;;
12222;SDS011;6174;49.058;8.524;2023-03-21T17:22:46;2.87;;;1.37;;
12222;SDS011;6174;49.058;8.524;2023-03-21T17:25:14;2.57;;;1.77;;
12222;SDS011;6174;49.058;8.524;2023-03-21T17:27:43;3.40;;;2.40;;
12222;SDS011;6174;49.058;8.524;2023-03-21T17:30:13;2.00;;;1.90;;
12222;SDS011;6174;49.058;8.524;2023-03-21T17:32:45;2.60;;;1.83;;
12222;SDS011;6174;49.058;8.524;2023-03-21T17:35:12;2.73;;;2.40;;
12222;SDS011;6174;49.058;8.524;2023-03-21T17:37:39;2.00;;;1.80;;
12222;SDS011;6174;49.058;8.524;2023-03-21T17:40:09;3.07;;;2.13;;
12222;SDS011;6174;49.058;8.524;2023-03-21T17:42:37;3.47;;;2.07;;
12222;SDS011;6174;49.058;8.524;2023-03-21T17:45:05;4.77;;;2.40;;
12222;SDS011;6174;49.058;8.524;2023-03-21T17:47:32;5.53;;;2.40;;
12222;SDS011;6174;49.058;8.524;2023-03-21T17:49:59;3.20;;;2.83;;
12222;SDS011;6174;49.058;8.524;2023-03-21T17:52:26;4.07;;;2.50;;
12222;SDS011;6174;49.058;8.524;2023-03-21T17:54:52;2.60;;;2.20;;
12222;SDS011;6174;49.058;8.524;2023-03-21T17:57:21;4.43;;;2.37;;
12222;SDS011;6174;49.058;8.524;2023-03-21T17:59:49;2.97;;;2.67;;
12222;SDS011;6174;49.058;8.524;2023-03-21T18:02:16;2.77;;;2.43;;
12222;SDS011;6174;49.058;8.524;2023-03-21T18:04:44;2.50;;;2.23;;
12222;SDS011;6174;49.058;8.524;2023-03-21T18:07:12;9.50;;;7.17;;
12222;SDS011;6174;49.058;8.524;2023-03-21T18:09:39;7.97;;;5.03;;
12222;SDS011;6174;49.058;8.524;2023-03-21T18:12:06;4.70;;;3.83;;
12222;SDS011;6174;49.058;8.524;2023-03-21T18:14:34;2.50;;;2.30;;
12222;SDS011;6174;49.058;8.524;2023-03-21T18:17:01;4.60;;;2.03;;
12222;SDS011;6174;49.058;8.524;2023-03-21T18:19:28;2.47;;;2.00;;
12222;SDS011;6174;49.058;8.524;2023-03-21T18:21:55;2.13;;;1.93;;
12222;SDS011;6174;49.058;8.524;2023-03-21T18:24:22;3.43;;;1.80;;
12222;SDS011;6174;49.058;8.524;2023-03-21T18:26:48;3.63;;;2.30;;
12222;SDS011;6174;49.058;8.524;2023-03-21T18:29:15;2.90;;;2.70;;
12222;SDS011;6174;49.058;8.524;2023-03-21T18:31:45;2.97;;;2.13;;
12222;SDS011;6174;49.058;8.524;2023-03-21T18:34:11;2.90;;;2.63;;
12222;SDS011;6174;49.058;8.524;2023-03-21T18:36:39;4.10;;;3.20;;
12222;SDS011;6174;49.058;8.524;2023-03-21T18:39:05;6.83;;;6.00;;
12222;SDS011;6174;49.058;8.524;2023-03-21T18:41:32;4.93;;;4.00;;
12222;SDS011;6174;49.058;8.524;2023-03-21T18:44:00;5.50;;;5.00;;
12222;SDS011;6174;49.058;8.524;2023-03-21T18:46:26;3.67;;;3.10;;
12222;SDS011;6174;49.058;8.524;2023-03-21T18:48:55;2.60;;;2.03;;
12222;SDS011;6174;49.058;8.524;2023-03-21T18:51:22;4.93;;;2.90;;
12222;SDS011;6174;49.058;8.524;2023-03-21T18:53:49;4.50;;;3.20;;
12222;SDS011;6174;49.058;8.524;2023-03-21T18:56:16;4.10;;;2.87;;
12222;SDS011;6174;49.058;8.524;2023-03-21T18:58:42;5.33;;;3.20;;
12222;SDS011;6174;49.058;8.524;2023-03-21T19:01:09;5.67;;;4.70;;
12222;SDS011;6174;49.058;8.524;2023-03-21T19:03:36;5.27;;;4.20;;
12222;SDS011;6174;49.058;8.524;2023-03-21T19:06:04;4.93;;;4.43;;
12222;SDS011;6174;49.058;8.524;2023-03-21T19:08:32;6.03;;;5.40;;
12222;SDS011;6174;49.058;8.524;2023-03-21T19:11:02;6.20;;;5.60;;
12222;SDS011;6174;49.058;8.524;2023-03-21T19:13:29;8.27;;;6.27;;
12222;SDS011;6174;49.058;8.524;2023-03-21T19:15:56;6.47;;;5.77;;
12222;SDS011;6174;49.058;8.524;2023-03-21T19:18:23;8.93;;;6.43;;
12222;SDS011;6174;49.058;8.524;2023-03-21T19:20:51;8.80;;;6.77;;
12222;SDS011;6174;49.058;8.524;2023-03-21T19:23:19;10.40;;;7.37;;
12222;SDS011;6174;49.058;8.524;2023-03-21T19:25:46;11.50;;;7.97;;
12222;SDS011;6174;49.058;8.524;2023-03-21T19:28:13;9.60;;;8.57;;
12222;SDS011;6174;49.058;8.524;2023-03-21T19:30:40;11.80;;;9.07;;
12222;SDS011;6174;49.058;8.524;2023-03-21T19:33:06;11.43;;;9.03;;
12222;SDS011;6174;49.058;8.524;2023-03-21T19:35:33;11.70;;;9.13;;
12222;SDS011;6174;49.058;8.524;2023-03-21T19:38:03;11.27;;;9.20;;
12222;SDS011;6174;49.058;8.524;2023-03-21T19:40:31;9.47;;;8.53;;
12222;SDS011;6174;49.058;8.524;2023-03-21T19:42:58;11.00;;;8.90;;
12222;SDS011;6174;49.058;8.524;2023-03-21T19:45:25;7.53;;;6.73;;
12222;SDS011;6174;49.058;8.524;2023-03-21T19:47:52;8.07;;;7.20;;
12222;SDS011;6174;49.058;8.524;2023-03-21T19:50:19;8.57;;;7.50;;
12222;SDS011;6174;49.058;8.524;2023-03-21T19:52:45;8.50;;;7.70;;
12222;SDS011;6174;49.058;8.524;2023-03-21T19:55:12;8.17;;;7.37;;
12222;SDS011;6174;49.058;8.524;2023-03-21T19:57:41;8.07;;;7.27;;
12222;SDS011;6174;49.058;8.524;2023-03-21T20:00:08;7.80;;;7.00;;
12222;SDS011;6174;49.058;8.524;2023-03-21T20:02:35;8.10;;;7.27;;
12222;SDS011;6174;49.058;8.524;2023-03-21T20:05:02;8.10;;;7.27;;
12222;SDS011;6174;49.058;8.524;2023-03-21T20:07:30;7.27;;;5.97;;
12222;SDS011;6174;49.058;8.524;2023-03-21T20:09:56;6.93;;;5.60;;
12222;SDS011;6174;49.058;8.524;2023-03-21T20:12:23;6.07;;;5.47;;
12222;SDS011;6174;49.058;8.524;2023-03-21T20:14:52;6.73;;;5.93;;
12222;SDS011;6174;49.058;8.524;2023-03-21T20:17:19;7.00;;;5.87;;
12222;SDS011;6174;49.058;8.524;2023-03-21T20:19:46;8.77;;;7.03;;